sensor_id;sensor_type;location;lat;lon;timestamp;P1;durP1;ratioP1;P2;durP2;ratioP2
76693;SDS011;69667;52.136;5.424;2023-06-22T00:01:20;7.95;;;5.35;;
76693;SDS011;69667;52.136;5.424;2023-06-22T00:06:15;10.88;;;6.55;;
76693;SDS011;69667;52.136;5.424;2023-06-22T00:08:42;8.48;;;5.38;;
76693;SDS011;69667;52.136;5.424;2023-06-22T00:11:08;9.73;;;5.38;;
76693;SDS011;69667;52.136;5.424;2023-06-22T00:13:35;9.43;;;6.22;;
76693;SDS011;69667;52.136;5.424;2023-06-22T00:16:02;8.52;;;5.80;;
76693;SDS011;69667;52.136;5.424;2023-06-22T00:18:29;8.13;;;5.28;;
76693;SDS011;69667;52.136;5.424;2023-06-22T00:20:57;9.70;;;5.65;;
76693;SDS011;69667;52.136;5.424;2023-06-22T00:23:25;8.20;;;5.57;;
76693;SDS011;69667;52.136;5.424;2023-06-22T00:25:52;10.63;;;5.80;;
76693;SDS011;69667;52.136;5.424;2023-06-22T00:28:19;8.00;;;5.20;;
76693;SDS011;69667;52.136;5.424;2023-06-22T00:30:46;8.05;;;5.20;;
76693;SDS011;69667;52.136;5.424;2023-06-22T00:33:13;9.80;;;5.57;;
76693;SDS011;69667;52.136;5.424;2023-06-22T00:35:43;9.57;;;5.15;;
76693;SDS011;69667;52.136;5.424;2023-06-22T00:38:10;9.90;;;5.80;;
76693;SDS011;69667;52.136;5.424;2023-06-22T00:40:37;8.75;;;5.60;;
76693;SDS011;69667;52.136;5.424;2023-06-22T00:43:04;10.18;;;6.13;;
76693;SDS011;69667;52.136;5.424;2023-06-22T00:45:32;9.80;;;5.82;;
76693;SDS011;69667;52.136;5.424;2023-06-22T00:48:01;10.43;;;5.68;;
76693;SDS011;69667;52.136;5.424;2023-06-22T00:50:30;10.43;;;6.25;;
76693;SDS011;69667;52.136;5.424;2023-06-22T00:53:08;9.73;;;6.35;;
76693;SDS011;69667;52.136;5.424;2023-06-22T00:55:38;8.27;;;5.75;;
76693;SDS011;69667;52.136;5.424;2023-06-22T00:58:09;12.43;;;6.47;;
76693;SDS011;69667;52.136;5.424;2023-06-22T01:00:38;9.45;;;5.72;;
76693;SDS011;69667;52.136;5.424;2023-06-22T01:03:05;9.43;;;5.93;;
76693;SDS011;69667;52.136;5.424;2023-06-22T01:05:36;9.82;;;5.80;;
76693;SDS011;69667;52.136;5.424;2023-06-22T01:10:57;8.15;;;5.47;;
76693;SDS011;69667;52.136;5.424;2023-06-22T01:16:23;8.88;;;6.07;;
76693;SDS011;69667;52.136;5.424;2023-06-22T01:18:55;8.88;;;5.97;;
76693;SDS011;69667;52.136;5.424;2023-06-22T01:21:23;9.55;;;5.82;;
76693;SDS011;69667;52.136;5.424;2023-06-22T01:29:21;8.38;;;5.63;;
76693;SDS011;69667;52.136;5.424;2023-06-22T01:31:50;10.50;;;6.38;;
76693;SDS011;69667;52.136;5.424;2023-06-22T01:34:20;9.75;;;6.20;;
76693;SDS011;69667;52.136;5.424;2023-06-22T01:36:48;14.48;;;7.03;;
76693;SDS011;69667;52.136;5.424;2023-06-22T01:39:16;9.40;;;6.05;;
76693;SDS011;69667;52.136;5.424;2023-06-22T01:41:43;7.82;;;5.85;;
76693;SDS011;69667;52.136;5.424;2023-06-22T01:44:12;10.25;;;6.55;;
76693;SDS011;69667;52.136;5.424;2023-06-22T01:46:40;9.40;;;5.90;;
76693;SDS011;69667;52.136;5.424;2023-06-22T01:49:07;10.40;;;6.50;;
76693;SDS011;69667;52.136;5.424;2023-06-22T01:51:35;8.80;;;6.05;;
76693;SDS011;69667;52.136;5.424;2023-06-22T01:54:02;9.27;;;6.10;;
76693;SDS011;69667;52.136;5.424;2023-06-22T01:56:29;9.07;;;6.25;;
76693;SDS011;69667;52.136;5.424;2023-06-22T01:59:00;11.18;;;6.10;;
76693;SDS011;69667;52.136;5.424;2023-06-22T02:01:37;9.75;;;5.70;;
76693;SDS011;69667;52.136;5.424;2023-06-22T02:04:13;8.90;;;5.68;;
76693;SDS011;69667;52.136;5.424;2023-06-22T02:06:47;9.57;;;6.05;;
76693;SDS011;69667;52.136;5.424;2023-06-22T02:09:21;10.45;;;6.07;;
76693;SDS011;69667;52.136;5.424;2023-06-22T02:14:21;9.45;;;6.28;;
76693;SDS011;69667;52.136;5.424;2023-06-22T02:16:50;10.07;;;5.90;;
76693;SDS011;69667;52.136;5.424;2023-06-22T02:19:22;9.48;;;6.07;;
76693;SDS011;69667;52.136;5.424;2023-06-22T02:21:49;11.52;;;6.93;;
76693;SDS011;69667;52.136;5.424;2023-06-22T02:24:15;10.32;;;6.03;;
76693;SDS011;69667;52.136;5.424;2023-06-22T02:26:43;11.13;;;6.03;;
76693;SDS011;69667;52.136;5.424;2023-06-22T02:29:15;9.45;;;6.05;;
76693;SDS011;69667;52.136;5.424;2023-06-22T02:31:42;11.13;;;6.30;;
76693;SDS011;69667;52.136;5.424;2023-06-22T02:34:09;9.57;;;6.43;;
76693;SDS011;69667;52.136;5.424;2023-06-22T02:36:36;11.05;;;6.85;;
76693;SDS011;69667;52.136;5.424;2023-06-22T02:39:02;11.20;;;6.63;;
76693;SDS011;69667;52.136;5.424;2023-06-22T02:41:30;9.27;;;5.85;;
76693;SDS011;69667;52.136;5.424;2023-06-22T02:43:57;10.13;;;6.53;;
76693;SDS011;69667;52.136;5.424;2023-06-22T02:46:24;10.93;;;6.28;;
76693;SDS011;69667;52.136;5.424;2023-06-22T02:48:51;10.13;;;6.88;;
76693;SDS011;69667;52.136;5.424;2023-06-22T02:51:18;11.70;;;7.07;;
76693;SDS011;69667;52.136;5.424;2023-06-22T02:53:45;10.20;;;6.50;;
76693;SDS011;69667;52.136;5.424;2023-06-22T02:56:14;10.65;;;7.03;;
76693;SDS011;69667;52.136;5.424;2023-06-22T02:58:42;10.57;;;6.68;;
76693;SDS011;69667;52.136;5.424;2023-06-22T03:01:10;11.65;;;7.10;;
76693;SDS011;69667;52.136;5.424;2023-06-22T03:03:41;9.88;;;6.38;;
76693;SDS011;69667;52.136;5.424;2023-06-22T03:06:08;11.73;;;6.43;;
76693;SDS011;69667;52.136;5.424;2023-06-22T03:08:40;10.95;;;7.00;;
76693;SDS011;69667;52.136;5.424;2023-06-22T03:11:08;10.10;;;6.82;;
76693;SDS011;69667;52.136;5.424;2023-06-22T03:13:35;10.35;;;6.90;;
76693;SDS011;69667;52.136;5.424;2023-06-22T03:16:02;10.50;;;6.97;;
76693;SDS011;69667;52.136;5.424;2023-06-22T03:18:29;12.75;;;7.30;;
76693;SDS011;69667;52.136;5.424;2023-06-22T03:20:56;9.73;;;6.80;;
76693;SDS011;69667;52.136;5.424;2023-06-22T03:23:23;11.75;;;7.43;;
76693;SDS011;69667;52.136;5.424;2023-06-22T03:25:50;11.45;;;7.18;;
76693;SDS011;69667;52.136;5.424;2023-06-22T03:28:17;12.32;;;7.35;;
76693;SDS011;69667;52.136;5.424;2023-06-22T03:30:44;11.07;;;6.65;;
76693;SDS011;69667;52.136;5.424;2023-06-22T03:33:11;14.18;;;8.07;;
76693;SDS011;69667;52.136;5.424;2023-06-22T03:35:37;13.02;;;8.10;;
76693;SDS011;69667;52.136;5.424;2023-06-22T03:38:04;12.80;;;7.47;;
76693;SDS011;69667;52.136;5.424;2023-06-22T03:40:33;10.52;;;7.53;;
76693;SDS011;69667;52.136;5.424;2023-06-22T03:43:00;12.18;;;7.38;;
76693;SDS011;69667;52.136;5.424;2023-06-22T03:45:28;10.57;;;7.18;;
76693;SDS011;69667;52.136;5.424;2023-06-22T03:47:56;11.75;;;7.68;;
76693;SDS011;69667;52.136;5.424;2023-06-22T03:50:25;17.08;;;7.45;;
76693;SDS011;69667;52.136;5.424;2023-06-22T03:52:53;11.27;;;7.72;;
76693;SDS011;69667;52.136;5.424;2023-06-22T03:55:20;11.00;;;7.43;;
76693;SDS011;69667;52.136;5.424;2023-06-22T03:57:46;10.65;;;7.10;;
76693;SDS011;69667;52.136;5.424;2023-06-22T04:00:16;11.02;;;7.70;;
76693;SDS011;69667;52.136;5.424;2023-06-22T04:02:45;12.88;;;7.57;;
76693;SDS011;69667;52.136;5.424;2023-06-22T04:05:12;12.82;;;7.38;;
76693;SDS011;69667;52.136;5.424;2023-06-22T04:07:39;11.20;;;7.75;;
76693;SDS011;69667;52.136;5.424;2023-06-22T04:10:09;13.55;;;7.25;;
76693;SDS011;69667;52.136;5.424;2023-06-22T04:12:38;12.65;;;7.72;;
76693;SDS011;69667;52.136;5.424;2023-06-22T04:15:05;13.48;;;8.10;;
76693;SDS011;69667;52.136;5.424;2023-06-22T04:17:35;13.52;;;8.00;;
76693;SDS011;69667;52.136;5.424;2023-06-22T04:20:02;13.65;;;7.97;;
76693;SDS011;69667;52.136;5.424;2023-06-22T04:22:30;12.75;;;7.43;;
76693;SDS011;69667;52.136;5.424;2023-06-22T04:24:58;13.02;;;8.32;;
76693;SDS011;69667;52.136;5.424;2023-06-22T04:27:27;14.07;;;8.93;;
76693;SDS011;69667;52.136;5.424;2023-06-22T04:29:55;14.50;;;8.35;;
76693;SDS011;69667;52.136;5.424;2023-06-22T04:32:29;14.05;;;8.88;;
76693;SDS011;69667;52.136;5.424;2023-06-22T04:35:01;16.83;;;9.35;;
76693;SDS011;69667;52.136;5.424;2023-06-22T04:37:33;18.35;;;9.07;;
76693;SDS011;69667;52.136;5.424;2023-06-22T04:40:03;14.20;;;9.60;;
76693;SDS011;69667;52.136;5.424;2023-06-22T04:45:31;16.75;;;10.23;;
76693;SDS011;69667;52.136;5.424;2023-06-22T04:47:59;18.67;;;9.98;;
76693;SDS011;69667;52.136;5.424;2023-06-22T04:50:26;16.20;;;10.85;;
76693;SDS011;69667;52.136;5.424;2023-06-22T04:52:53;16.90;;;10.48;;
76693;SDS011;69667;52.136;5.424;2023-06-22T04:55:20;17.15;;;10.38;;
76693;SDS011;69667;52.136;5.424;2023-06-22T04:57:48;18.10;;;11.60;;
76693;SDS011;69667;52.136;5.424;2023-06-22T05:00:16;20.73;;;12.48;;
76693;SDS011;69667;52.136;5.424;2023-06-22T05:02:44;19.55;;;12.70;;
76693;SDS011;69667;52.136;5.424;2023-06-22T05:05:12;18.98;;;12.77;;
76693;SDS011;69667;52.136;5.424;2023-06-22T05:07:43;17.05;;;11.63;;
76693;SDS011;69667;52.136;5.424;2023-06-22T05:10:11;19.70;;;12.65;;
76693;SDS011;69667;52.136;5.424;2023-06-22T05:12:39;20.45;;;12.68;;
76693;SDS011;69667;52.136;5.424;2023-06-22T05:15:08;21.00;;;13.65;;
76693;SDS011;69667;52.136;5.424;2023-06-22T05:17:36;21.25;;;13.88;;
76693;SDS011;69667;52.136;5.424;2023-06-22T05:20:08;25.17;;;14.52;;
76693;SDS011;69667;52.136;5.424;2023-06-22T05:22:36;24.27;;;13.88;;
76693;SDS011;69667;52.136;5.424;2023-06-22T05:25:03;20.45;;;13.38;;
76693;SDS011;69667;52.136;5.424;2023-06-22T05:27:32;19.65;;;12.98;;
76693;SDS011;69667;52.136;5.424;2023-06-22T05:29:59;19.05;;;12.98;;
76693;SDS011;69667;52.136;5.424;2023-06-22T05:32:31;20.65;;;12.90;;
76693;SDS011;69667;52.136;5.424;2023-06-22T05:35:09;22.65;;;14.38;;
76693;SDS011;69667;52.136;5.424;2023-06-22T05:40:46;18.77;;;13.57;;
76693;SDS011;69667;52.136;5.424;2023-06-22T05:43:22;21.58;;;14.45;;
76693;SDS011;69667;52.136;5.424;2023-06-22T05:45:50;19.15;;;13.93;;
76693;SDS011;69667;52.136;5.424;2023-06-22T05:48:21;21.92;;;15.25;;
76693;SDS011;69667;52.136;5.424;2023-06-22T05:50:59;20.80;;;15.00;;
76693;SDS011;69667;52.136;5.424;2023-06-22T05:53:29;24.02;;;15.90;;
76693;SDS011;69667;52.136;5.424;2023-06-22T05:55:58;19.42;;;15.55;;
76693;SDS011;69667;52.136;5.424;2023-06-22T05:58:25;24.05;;;16.27;;
76693;SDS011;69667;52.136;5.424;2023-06-22T06:00:57;22.95;;;16.08;;
76693;SDS011;69667;52.136;5.424;2023-06-22T06:03:27;18.85;;;15.82;;
76693;SDS011;69667;52.136;5.424;2023-06-22T06:05:57;21.67;;;15.50;;
76693;SDS011;69667;52.136;5.424;2023-06-22T06:08:27;21.00;;;14.93;;
76693;SDS011;69667;52.136;5.424;2023-06-22T06:10:54;19.42;;;14.80;;
76693;SDS011;69667;52.136;5.424;2023-06-22T06:13:26;18.88;;;14.65;;
76693;SDS011;69667;52.136;5.424;2023-06-22T06:16:14;20.48;;;14.13;;
76693;SDS011;69667;52.136;5.424;2023-06-22T06:18:40;19.05;;;14.85;;
76693;SDS011;69667;52.136;5.424;2023-06-22T06:21:07;17.55;;;14.40;;
76693;SDS011;69667;52.136;5.424;2023-06-22T06:23:34;19.75;;;15.38;;
76693;SDS011;69667;52.136;5.424;2023-06-22T06:26:00;20.15;;;14.38;;
76693;SDS011;69667;52.136;5.424;2023-06-22T06:28:27;17.45;;;13.77;;
76693;SDS011;69667;52.136;5.424;2023-06-22T06:30:54;17.45;;;13.60;;
76693;SDS011;69667;52.136;5.424;2023-06-22T06:33:20;17.90;;;15.05;;
76693;SDS011;69667;52.136;5.424;2023-06-22T06:35:50;20.10;;;14.30;;
76693;SDS011;69667;52.136;5.424;2023-06-22T06:38:16;19.40;;;14.15;;
76693;SDS011;69667;52.136;5.424;2023-06-22T06:40:43;15.57;;;13.57;;
76693;SDS011;69667;52.136;5.424;2023-06-22T06:43:11;20.55;;;14.40;;
76693;SDS011;69667;52.136;5.424;2023-06-22T06:45:38;16.95;;;13.85;;
76693;SDS011;69667;52.136;5.424;2023-06-22T06:48:05;17.88;;;14.23;;
76693;SDS011;69667;52.136;5.424;2023-06-22T06:50:32;15.90;;;14.20;;
76693;SDS011;69667;52.136;5.424;2023-06-22T06:52:59;15.65;;;13.02;;
76693;SDS011;69667;52.136;5.424;2023-06-22T06:55:25;16.35;;;13.95;;
76693;SDS011;69667;52.136;5.424;2023-06-22T06:57:52;16.65;;;14.13;;
76693;SDS011;69667;52.136;5.424;2023-06-22T07:00:19;17.85;;;13.98;;
76693;SDS011;69667;52.136;5.424;2023-06-22T07:02:47;14.57;;;12.82;;
76693;SDS011;69667;52.136;5.424;2023-06-22T07:05:15;15.43;;;11.80;;
76693;SDS011;69667;52.136;5.424;2023-06-22T07:07:42;16.65;;;13.02;;
76693;SDS011;69667;52.136;5.424;2023-06-22T07:10:09;15.50;;;11.77;;
76693;SDS011;69667;52.136;5.424;2023-06-22T07:12:36;16.65;;;12.65;;
76693;SDS011;69667;52.136;5.424;2023-06-22T07:15:03;13.15;;;11.20;;
76693;SDS011;69667;52.136;5.424;2023-06-22T07:17:32;12.63;;;11.32;;
76693;SDS011;69667;52.136;5.424;2023-06-22T07:19:58;13.98;;;10.30;;
76693;SDS011;69667;52.136;5.424;2023-06-22T07:22:25;13.52;;;10.95;;
76693;SDS011;69667;52.136;5.424;2023-06-22T07:24:52;15.05;;;11.55;;
76693;SDS011;69667;52.136;5.424;2023-06-22T07:27:18;13.50;;;11.05;;
76693;SDS011;69667;52.136;5.424;2023-06-22T07:29:46;14.00;;;10.40;;
76693;SDS011;69667;52.136;5.424;2023-06-22T07:32:12;12.20;;;10.30;;
76693;SDS011;69667;52.136;5.424;2023-06-22T07:34:42;13.30;;;10.05;;
76693;SDS011;69667;52.136;5.424;2023-06-22T07:37:10;15.65;;;9.82;;
76693;SDS011;69667;52.136;5.424;2023-06-22T07:39:36;12.30;;;9.90;;
76693;SDS011;69667;52.136;5.424;2023-06-22T07:42:04;12.77;;;11.32;;
76693;SDS011;69667;52.136;5.424;2023-06-22T07:44:31;13.60;;;11.23;;
76693;SDS011;69667;52.136;5.424;2023-06-22T07:46:57;12.32;;;9.95;;
76693;SDS011;69667;52.136;5.424;2023-06-22T07:49:24;15.65;;;10.52;;
76693;SDS011;69667;52.136;5.424;2023-06-22T07:51:50;16.27;;;11.13;;
76693;SDS011;69667;52.136;5.424;2023-06-22T07:54:17;12.15;;;10.27;;
76693;SDS011;69667;52.136;5.424;2023-06-22T07:56:45;11.90;;;9.27;;
76693;SDS011;69667;52.136;5.424;2023-06-22T07:59:12;11.98;;;10.25;;
76693;SDS011;69667;52.136;5.424;2023-06-22T08:01:41;10.27;;;8.85;;
76693;SDS011;69667;52.136;5.424;2023-06-22T08:04:08;12.13;;;10.45;;
76693;SDS011;69667;52.136;5.424;2023-06-22T08:06:35;10.18;;;8.65;;
76693;SDS011;69667;52.136;5.424;2023-06-22T08:09:02;12.07;;;8.32;;
76693;SDS011;69667;52.136;5.424;2023-06-22T08:11:29;11.25;;;8.00;;
76693;SDS011;69667;52.136;5.424;2023-06-22T08:13:56;12.85;;;9.15;;
76693;SDS011;69667;52.136;5.424;2023-06-22T08:16:24;11.80;;;8.02;;
76693;SDS011;69667;52.136;5.424;2023-06-22T08:18:51;11.85;;;9.25;;
76693;SDS011;69667;52.136;5.424;2023-06-22T08:21:18;10.05;;;7.60;;
76693;SDS011;69667;52.136;5.424;2023-06-22T08:23:44;12.30;;;8.77;;
76693;SDS011;69667;52.136;5.424;2023-06-22T08:26:11;13.07;;;9.32;;
76693;SDS011;69667;52.136;5.424;2023-06-22T08:28:38;12.45;;;8.40;;
76693;SDS011;69667;52.136;5.424;2023-06-22T08:31:04;10.07;;;7.55;;
76693;SDS011;69667;52.136;5.424;2023-06-22T08:33:31;10.70;;;8.55;;
76693;SDS011;69667;52.136;5.424;2023-06-22T08:35:58;8.82;;;6.40;;
76693;SDS011;69667;52.136;5.424;2023-06-22T08:38:25;9.02;;;7.10;;
76693;SDS011;69667;52.136;5.424;2023-06-22T08:40:52;8.68;;;6.72;;
76693;SDS011;69667;52.136;5.424;2023-06-22T08:43:19;9.55;;;8.00;;
76693;SDS011;69667;52.136;5.424;2023-06-22T08:45:45;8.27;;;6.18;;
76693;SDS011;69667;52.136;5.424;2023-06-22T08:48:12;8.57;;;6.57;;
76693;SDS011;69667;52.136;5.424;2023-06-22T08:50:38;10.00;;;7.65;;
76693;SDS011;69667;52.136;5.424;2023-06-22T08:53:07;9.30;;;6.07;;
76693;SDS011;69667;52.136;5.424;2023-06-22T08:55:33;7.90;;;6.25;;
76693;SDS011;69667;52.136;5.424;2023-06-22T08:58:00;8.27;;;5.70;;
76693;SDS011;69667;52.136;5.424;2023-06-22T09:00:27;7.50;;;5.18;;
76693;SDS011;69667;52.136;5.424;2023-06-22T09:02:55;6.38;;;5.00;;
76693;SDS011;69667;52.136;5.424;2023-06-22T09:05:25;7.15;;;5.13;;
76693;SDS011;69667;52.136;5.424;2023-06-22T09:10:22;5.72;;;4.53;;
76693;SDS011;69667;52.136;5.424;2023-06-22T09:12:49;7.22;;;4.88;;
76693;SDS011;69667;52.136;5.424;2023-06-22T09:15:16;6.80;;;4.90;;
76693;SDS011;69667;52.136;5.424;2023-06-22T09:17:44;7.35;;;4.53;;
76693;SDS011;69667;52.136;5.424;2023-06-22T09:20:13;5.15;;;4.00;;
76693;SDS011;69667;52.136;5.424;2023-06-22T09:22:40;7.55;;;4.95;;
76693;SDS011;69667;52.136;5.424;2023-06-22T09:25:06;9.10;;;4.35;;
76693;SDS011;69667;52.136;5.424;2023-06-22T09:27:33;7.38;;;4.22;;
76693;SDS011;69667;52.136;5.424;2023-06-22T09:30:00;7.30;;;5.05;;
76693;SDS011;69667;52.136;5.424;2023-06-22T09:32:27;6.65;;;4.50;;
76693;SDS011;69667;52.136;5.424;2023-06-22T09:34:54;8.13;;;5.20;;
76693;SDS011;69667;52.136;5.424;2023-06-22T09:37:21;6.03;;;4.30;;
76693;SDS011;69667;52.136;5.424;2023-06-22T09:39:48;4.88;;;3.70;;
76693;SDS011;69667;52.136;5.424;2023-06-22T09:42:14;5.28;;;3.95;;
76693;SDS011;69667;52.136;5.424;2023-06-22T09:44:41;6.47;;;3.60;;
76693;SDS011;69667;52.136;5.424;2023-06-22T09:47:07;7.65;;;4.93;;
76693;SDS011;69667;52.136;5.424;2023-06-22T09:49:34;6.30;;;4.05;;
76693;SDS011;69667;52.136;5.424;2023-06-22T09:52:12;7.00;;;4.65;;
76693;SDS011;69667;52.136;5.424;2023-06-22T09:54:39;8.13;;;4.93;;
76693;SDS011;69667;52.136;5.424;2023-06-22T09:57:06;7.85;;;5.40;;
76693;SDS011;69667;52.136;5.424;2023-06-22T09:59:33;7.38;;;5.45;;
76693;SDS011;69667;52.136;5.424;2023-06-22T10:01:59;7.53;;;4.40;;
76693;SDS011;69667;52.136;5.424;2023-06-22T10:04:26;6.80;;;4.28;;
76693;SDS011;69667;52.136;5.424;2023-06-22T10:06:53;6.43;;;4.65;;
76693;SDS011;69667;52.136;5.424;2023-06-22T10:09:20;5.65;;;3.95;;
76693;SDS011;69667;52.136;5.424;2023-06-22T10:11:47;7.00;;;4.35;;
76693;SDS011;69667;52.136;5.424;2023-06-22T10:14:14;5.60;;;3.92;;
76693;SDS011;69667;52.136;5.424;2023-06-22T10:16:41;6.05;;;4.07;;
76693;SDS011;69667;52.136;5.424;2023-06-22T10:19:08;5.28;;;3.20;;
76693;SDS011;69667;52.136;5.424;2023-06-22T10:21:34;6.68;;;3.88;;
76693;SDS011;69667;52.136;5.424;2023-06-22T10:24:01;6.68;;;3.83;;
76693;SDS011;69667;52.136;5.424;2023-06-22T10:26:32;6.93;;;4.20;;
76693;SDS011;69667;52.136;5.424;2023-06-22T10:28:59;7.00;;;4.35;;
76693;SDS011;69667;52.136;5.424;2023-06-22T10:31:42;5.43;;;4.07;;
76693;SDS011;69667;52.136;5.424;2023-06-22T10:34:09;7.50;;;3.92;;
76693;SDS011;69667;52.136;5.424;2023-06-22T10:36:35;5.82;;;4.43;;
76693;SDS011;69667;52.136;5.424;2023-06-22T10:39:02;7.22;;;4.57;;
76693;SDS011;69667;52.136;5.424;2023-06-22T10:41:29;6.72;;;4.50;;
76693;SDS011;69667;52.136;5.424;2023-06-22T10:43:57;8.43;;;4.80;;
76693;SDS011;69667;52.136;5.424;2023-06-22T10:46:24;6.65;;;4.30;;
76693;SDS011;69667;52.136;5.424;2023-06-22T10:48:52;6.53;;;4.10;;
76693;SDS011;69667;52.136;5.424;2023-06-22T10:51:21;7.07;;;4.50;;
76693;SDS011;69667;52.136;5.424;2023-06-22T10:53:48;7.53;;;4.50;;
76693;SDS011;69667;52.136;5.424;2023-06-22T10:56:14;7.22;;;4.93;;
76693;SDS011;69667;52.136;5.424;2023-06-22T10:58:41;6.32;;;4.88;;
76693;SDS011;69667;52.136;5.424;2023-06-22T11:01:07;6.85;;;4.97;;
76693;SDS011;69667;52.136;5.424;2023-06-22T11:03:45;8.75;;;4.82;;
76693;SDS011;69667;52.136;5.424;2023-06-22T11:06:12;6.47;;;4.68;;
76693;SDS011;69667;52.136;5.424;2023-06-22T11:08:38;7.82;;;5.15;;
76693;SDS011;69667;52.136;5.424;2023-06-22T11:11:09;6.78;;;4.95;;
76693;SDS011;69667;52.136;5.424;2023-06-22T11:13:35;10.75;;;5.00;;
76693;SDS011;69667;52.136;5.424;2023-06-22T11:16:02;7.10;;;4.57;;
76693;SDS011;69667;52.136;5.424;2023-06-22T11:18:28;11.38;;;4.95;;
76693;SDS011;69667;52.136;5.424;2023-06-22T11:20:57;7.00;;;4.68;;
76693;SDS011;69667;52.136;5.424;2023-06-22T11:23:23;7.45;;;4.47;;
76693;SDS011;69667;52.136;5.424;2023-06-22T11:25:53;9.60;;;7.10;;
76693;SDS011;69667;52.136;5.424;2023-06-22T11:28:19;8.88;;;5.60;;
76693;SDS011;69667;52.136;5.424;2023-06-22T11:30:46;8.18;;;5.70;;
76693;SDS011;69667;52.136;5.424;2023-06-22T11:33:13;44.30;;;10.38;;
76693;SDS011;69667;52.136;5.424;2023-06-22T11:35:39;29.17;;;9.35;;
76693;SDS011;69667;52.136;5.424;2023-06-22T11:38:06;24.70;;;7.90;;
76693;SDS011;69667;52.136;5.424;2023-06-22T11:40:33;12.48;;;7.32;;
76693;SDS011;69667;52.136;5.424;2023-06-22T11:43:00;15.45;;;8.00;;
76693;SDS011;69667;52.136;5.424;2023-06-22T11:45:27;10.68;;;6.93;;
76693;SDS011;69667;52.136;5.424;2023-06-22T11:47:53;12.00;;;8.50;;
76693;SDS011;69667;52.136;5.424;2023-06-22T11:50:23;11.43;;;7.93;;
76693;SDS011;69667;52.136;5.424;2023-06-22T11:52:49;25.98;;;9.35;;
76693;SDS011;69667;52.136;5.424;2023-06-22T11:55:17;11.35;;;7.60;;
76693;SDS011;69667;52.136;5.424;2023-06-22T11:57:54;46.78;;;11.82;;
76693;SDS011;69667;52.136;5.424;2023-06-22T12:00:22;28.13;;;10.18;;
76693;SDS011;69667;52.136;5.424;2023-06-22T12:02:55;11.68;;;7.78;;
76693;SDS011;69667;52.136;5.424;2023-06-22T12:05:26;63.25;;;13.98;;
76693;SDS011;69667;52.136;5.424;2023-06-22T12:07:53;15.05;;;9.52;;
76693;SDS011;69667;52.136;5.424;2023-06-22T12:10:22;10.88;;;7.85;;
76693;SDS011;69667;52.136;5.424;2023-06-22T12:12:49;11.80;;;8.02;;
76693;SDS011;69667;52.136;5.424;2023-06-22T12:15:16;19.17;;;8.85;;
76693;SDS011;69667;52.136;5.424;2023-06-22T12:17:42;10.98;;;8.38;;
76693;SDS011;69667;52.136;5.424;2023-06-22T12:20:09;12.50;;;7.72;;
76693;SDS011;69667;52.136;5.424;2023-06-22T12:22:36;12.07;;;8.32;;
76693;SDS011;69667;52.136;5.424;2023-06-22T12:25:06;10.23;;;8.25;;
76693;SDS011;69667;52.136;5.424;2023-06-22T12:27:34;12.63;;;8.57;;
76693;SDS011;69667;52.136;5.424;2023-06-22T12:30:02;12.63;;;8.95;;
76693;SDS011;69667;52.136;5.424;2023-06-22T12:32:29;12.52;;;9.65;;
76693;SDS011;69667;52.136;5.424;2023-06-22T12:34:56;15.80;;;9.20;;
76693;SDS011;69667;52.136;5.424;2023-06-22T12:37:23;12.27;;;9.50;;
76693;SDS011;69667;52.136;5.424;2023-06-22T12:39:49;12.40;;;9.60;;
76693;SDS011;69667;52.136;5.424;2023-06-22T12:42:16;14.93;;;9.32;;
76693;SDS011;69667;52.136;5.424;2023-06-22T12:44:43;10.60;;;8.30;;
76693;SDS011;69667;52.136;5.424;2023-06-22T12:47:09;10.73;;;7.45;;
76693;SDS011;69667;52.136;5.424;2023-06-22T12:49:36;10.90;;;6.97;;
76693;SDS011;69667;52.136;5.424;2023-06-22T12:52:08;10.95;;;7.78;;
76693;SDS011;69667;52.136;5.424;2023-06-22T12:54:35;10.63;;;6.55;;
76693;SDS011;69667;52.136;5.424;2023-06-22T12:57:19;10.43;;;7.25;;
76693;SDS011;69667;52.136;5.424;2023-06-22T12:59:46;9.98;;;7.00;;
76693;SDS011;69667;52.136;5.424;2023-06-22T13:02:12;8.85;;;6.07;;
76693;SDS011;69667;52.136;5.424;2023-06-22T13:04:39;9.65;;;6.90;;
76693;SDS011;69667;52.136;5.424;2023-06-22T13:07:09;10.15;;;7.25;;
76693;SDS011;69667;52.136;5.424;2023-06-22T13:09:48;11.02;;;6.55;;
76693;SDS011;69667;52.136;5.424;2023-06-22T13:12:18;10.73;;;6.38;;
76693;SDS011;69667;52.136;5.424;2023-06-22T13:14:49;10.85;;;7.07;;
76693;SDS011;69667;52.136;5.424;2023-06-22T13:17:15;8.50;;;6.63;;
76693;SDS011;69667;52.136;5.424;2023-06-22T13:19:42;9.68;;;7.10;;
76693;SDS011;69667;52.136;5.424;2023-06-22T13:22:25;10.27;;;7.78;;
76693;SDS011;69667;52.136;5.424;2023-06-22T13:24:54;10.88;;;8.45;;
76693;SDS011;69667;52.136;5.424;2023-06-22T13:27:21;11.57;;;8.95;;
76693;SDS011;69667;52.136;5.424;2023-06-22T13:29:48;15.30;;;8.80;;
76693;SDS011;69667;52.136;5.424;2023-06-22T13:32:15;12.35;;;8.93;;
76693;SDS011;69667;52.136;5.424;2023-06-22T13:34:42;14.02;;;8.13;;
76693;SDS011;69667;52.136;5.424;2023-06-22T13:37:09;11.85;;;9.20;;
76693;SDS011;69667;52.136;5.424;2023-06-22T13:39:36;10.55;;;7.85;;
76693;SDS011;69667;52.136;5.424;2023-06-22T13:42:02;14.57;;;9.32;;
76693;SDS011;69667;52.136;5.424;2023-06-22T13:44:29;14.77;;;9.85;;
76693;SDS011;69667;52.136;5.424;2023-06-22T13:46:56;12.98;;;9.57;;
76693;SDS011;69667;52.136;5.424;2023-06-22T13:49:22;14.35;;;9.48;;
76693;SDS011;69667;52.136;5.424;2023-06-22T13:51:49;12.95;;;8.93;;
76693;SDS011;69667;52.136;5.424;2023-06-22T13:54:16;12.82;;;9.73;;
76693;SDS011;69667;52.136;5.424;2023-06-22T13:56:50;12.20;;;9.15;;
76693;SDS011;69667;52.136;5.424;2023-06-22T13:59:16;12.80;;;9.30;;
76693;SDS011;69667;52.136;5.424;2023-06-22T14:01:43;12.57;;;10.30;;
76693;SDS011;69667;52.136;5.424;2023-06-22T14:04:10;17.30;;;10.30;;
76693;SDS011;69667;52.136;5.424;2023-06-22T14:06:37;15.95;;;9.63;;
76693;SDS011;69667;52.136;5.424;2023-06-22T14:09:04;14.52;;;9.40;;
76693;SDS011;69667;52.136;5.424;2023-06-22T14:11:31;12.90;;;10.05;;
76693;SDS011;69667;52.136;5.424;2023-06-22T14:13:58;13.02;;;8.98;;
76693;SDS011;69667;52.136;5.424;2023-06-22T14:16:24;13.40;;;9.63;;
76693;SDS011;69667;52.136;5.424;2023-06-22T14:18:51;15.50;;;9.85;;
76693;SDS011;69667;52.136;5.424;2023-06-22T14:21:20;12.35;;;9.77;;
76693;SDS011;69667;52.136;5.424;2023-06-22T14:23:46;14.27;;;10.05;;
76693;SDS011;69667;52.136;5.424;2023-06-22T14:26:15;16.73;;;10.55;;
76693;SDS011;69667;52.136;5.424;2023-06-22T14:28:45;13.18;;;10.10;;
76693;SDS011;69667;52.136;5.424;2023-06-22T14:31:17;14.55;;;10.05;;
76693;SDS011;69667;52.136;5.424;2023-06-22T14:33:48;14.30;;;10.65;;
76693;SDS011;69667;52.136;5.424;2023-06-22T14:36:16;14.00;;;10.30;;
76693;SDS011;69667;52.136;5.424;2023-06-22T14:38:44;15.05;;;9.98;;
76693;SDS011;69667;52.136;5.424;2023-06-22T14:41:12;15.23;;;10.90;;
76693;SDS011;69667;52.136;5.424;2023-06-22T14:43:44;13.82;;;10.57;;
76693;SDS011;69667;52.136;5.424;2023-06-22T14:46:12;14.88;;;10.55;;
76693;SDS011;69667;52.136;5.424;2023-06-22T14:48:43;14.38;;;11.20;;
76693;SDS011;69667;52.136;5.424;2023-06-22T14:51:11;15.10;;;11.38;;
76693;SDS011;69667;52.136;5.424;2023-06-22T14:53:43;14.68;;;11.38;;
76693;SDS011;69667;52.136;5.424;2023-06-22T14:56:11;15.05;;;11.55;;
76693;SDS011;69667;52.136;5.424;2023-06-22T14:58:42;15.85;;;10.70;;
76693;SDS011;69667;52.136;5.424;2023-06-22T15:01:13;15.02;;;11.57;;
76693;SDS011;69667;52.136;5.424;2023-06-22T15:03:40;15.93;;;10.90;;
76693;SDS011;69667;52.136;5.424;2023-06-22T15:06:10;15.13;;;12.18;;